Saint Louis, Missouri
Traffic Map
Current Weather Conditions
Saint Louis, Missouri
Broken Clouds
Broken Clouds
73°
Feels Like: 73°
Wind Chill: 73° Ceiling: 9500
Heat Index: 73° Visibility: 10mi
Dew Point: 65° Wind: 0mph
Humidity: 76% Direction: ° ()
Pressure: 30.04in Gusts: 0mph
Raw Report DataKCPS 250953Z AUTO 00000KT 10SM BKN095 23/18 A3004 RMK AO2 SLP167 T02280183 TSNO
Traffic Incident Summary
Active as of:
Severity:
Category:
InformationThere was an issue retrieving the traffic information for this location. Please try a different location or try again shortly.
Advertisements
Track Severe Weather on mobile